Jingyuan, China
Current Conditions -  °F | °C
As of 11:00 PM on Monday 24 Nov 2014 (Local Time) from ZLLL Reporting Station
Haze Haze  
Wind Chill: 17°   Ceiling: Unl
Heat Index: 23°   Visibility: 1.6mi
Dew Point: 21°   Wind: 4mph
Humidity: 93%   Direction: 320°NW
Pressure: 30.12"   Gusts: NA
Location:  36.58°N, 104.67°E
Report Text: ZLLL 241500Z 32002MPS 2600 BR NSC M05/M06 Q1020 NOSIG
Loading
Personal Weather Stations






























Interactive Weather Map New forecast layout! Learn more

10-Day Weather Forecast

Advertisements
Track Severe Weather on mobile